sensor_id;sensor_type;location;lat;lon;timestamp;pressure;altitude;pressure_sealevel;temperature;humidity
62510;BME280;48558;48.242;11.654;2023-11-21T00:03:54;95732.84;;;7.40;100.00
62510;BME280;48558;48.242;11.654;2023-11-21T00:08:08;95722.13;;;7.24;100.00
62510;BME280;48558;48.242;11.654;2023-11-21T00:12:20;95739.09;;;7.22;100.00
62510;BME280;48558;48.242;11.654;2023-11-21T00:16:33;95735.47;;;7.35;100.00
62510;BME280;48558;48.242;11.654;2023-11-21T00:20:46;95736.19;;;7.35;100.00
62510;BME280;48558;48.242;11.654;2023-11-21T00:24:58;95729.94;;;7.26;100.00
62510;BME280;48558;48.242;11.654;2023-11-21T00:29:11;95721.84;;;7.31;100.00
62510;BME280;48558;48.242;11.654;2023-11-21T00:33:23;95735.59;;;7.31;100.00
62510;BME280;48558;48.242;11.654;2023-11-21T00:37:37;95715.00;;;7.36;100.00
62510;BME280;48558;48.242;11.654;2023-11-21T00:41:52;95707.81;;;7.38;100.00
62510;BME280;48558;48.242;11.654;2023-11-21T00:46:05;95705.09;;;7.47;100.00
62510;BME280;48558;48.242;11.654;2023-11-21T00:50:21;95691.50;;;7.53;100.00
62510;BME280;48558;48.242;11.654;2023-11-21T00:54:34;95674.84;;;7.56;100.00
62510;BME280;48558;48.242;11.654;2023-11-21T00:58:46;95677.13;;;7.49;100.00
62510;BME280;48558;48.242;11.654;2023-11-21T01:03:02;95687.81;;;7.56;100.00
62510;BME280;48558;48.242;11.654;2023-11-21T01:07:14;95676.69;;;7.68;100.00
62510;BME280;48558;48.242;11.654;2023-11-21T01:11:27;95679.13;;;7.57;100.00
62510;BME280;48558;48.242;11.654;2023-11-21T01:15:40;95679.28;;;7.45;100.00
62510;BME280;48558;48.242;11.654;2023-11-21T01:19:52;95696.06;;;7.38;100.00
62510;BME280;48558;48.242;11.654;2023-11-21T01:24:05;95691.50;;;7.44;100.00
62510;BME280;48558;48.242;11.654;2023-11-21T01:28:20;95697.56;;;7.20;100.00
62510;BME280;48558;48.242;11.654;2023-11-21T01:32:33;95699.06;;;7.21;100.00
62510;BME280;48558;48.242;11.654;2023-11-21T01:36:46;95690.81;;;7.12;100.00
62510;BME280;48558;48.242;11.654;2023-11-21T01:40:59;95700.00;;;7.18;100.00
62510;BME280;48558;48.242;11.654;2023-11-21T01:45:13;95694.50;;;7.18;100.00
62510;BME280;48558;48.242;11.654;2023-11-21T01:49:26;95708.88;;;7.22;100.00
62510;BME280;48558;48.242;11.654;2023-11-21T01:53:39;95712.06;;;7.21;100.00
62510;BME280;48558;48.242;11.654;2023-11-21T01:57:51;95718.66;;;7.23;100.00
62510;BME280;48558;48.242;11.654;2023-11-21T02:02:05;95717.72;;;7.27;100.00
62510;BME280;48558;48.242;11.654;2023-11-21T02:06:18;95708.72;;;7.26;100.00
62510;BME280;48558;48.242;11.654;2023-11-21T02:10:31;95719.81;;;7.04;100.00
62510;BME280;48558;48.242;11.654;2023-11-21T02:14:44;95737.66;;;7.00;100.00
62510;BME280;48558;48.242;11.654;2023-11-21T02:18:57;95722.88;;;7.15;100.00
62510;BME280;48558;48.242;11.654;2023-11-21T02:23:10;95723.22;;;7.36;100.00
62510;BME280;48558;48.242;11.654;2023-11-21T02:27:24;95711.34;;;7.57;100.00
62510;BME280;48558;48.242;11.654;2023-11-21T02:31:36;95719.00;;;7.62;100.00
62510;BME280;48558;48.242;11.654;2023-11-21T02:35:50;95726.59;;;7.40;100.00
62510;BME280;48558;48.242;11.654;2023-11-21T02:40:09;95717.59;;;7.39;100.00
62510;BME280;48558;48.242;11.654;2023-11-21T02:44:22;95708.25;;;7.18;100.00
62510;BME280;48558;48.242;11.654;2023-11-21T02:48:35;95713.75;;;7.28;100.00
62510;BME280;48558;48.242;11.654;2023-11-21T02:52:48;95704.44;;;7.16;100.00
62510;BME280;48558;48.242;11.654;2023-11-21T02:57:01;95692.53;;;7.10;100.00
62510;BME280;48558;48.242;11.654;2023-11-21T03:01:14;95696.94;;;7.16;100.00
62510;BME280;48558;48.242;11.654;2023-11-21T03:05:27;95691.28;;;7.11;100.00
62510;BME280;48558;48.242;11.654;2023-11-21T03:09:41;95702.56;;;7.13;100.00
62510;BME280;48558;48.242;11.654;2023-11-21T03:13:53;95683.50;;;7.09;100.00
62510;BME280;48558;48.242;11.654;2023-11-21T03:18:06;95681.97;;;7.08;100.00
62510;BME280;48558;48.242;11.654;2023-11-21T03:22:18;95689.63;;;7.13;100.00
62510;BME280;48558;48.242;11.654;2023-11-21T03:26:31;95680.28;;;7.11;100.00
62510;BME280;48558;48.242;11.654;2023-11-21T03:30:44;95678.31;;;7.02;100.00
62510;BME280;48558;48.242;11.654;2023-11-21T03:34:58;95689.59;;;7.04;100.00
62510;BME280;48558;48.242;11.654;2023-11-21T03:39:11;95693.13;;;7.05;100.00
62510;BME280;48558;48.242;11.654;2023-11-21T03:43:23;95688.94;;;6.91;100.00
62510;BME280;48558;48.242;11.654;2023-11-21T03:47:37;95683.88;;;6.81;100.00
62510;BME280;48558;48.242;11.654;2023-11-21T03:51:49;95677.56;;;6.62;100.00
62510;BME280;48558;48.242;11.654;2023-11-21T03:56:02;95686.88;;;6.65;100.00
62510;BME280;48558;48.242;11.654;2023-11-21T04:00:20;95658.88;;;6.39;100.00
62510;BME280;48558;48.242;11.654;2023-11-21T04:04:33;95694.31;;;6.55;100.00
62510;BME280;48558;48.242;11.654;2023-11-21T04:08:46;95684.56;;;6.63;100.00
62510;BME280;48558;48.242;11.654;2023-11-21T04:12:59;95690.56;;;6.71;100.00
62510;BME280;48558;48.242;11.654;2023-11-21T04:17:12;95641.47;;;6.33;100.00
62510;BME280;48558;48.242;11.654;2023-11-21T04:21:25;95675.84;;;6.46;100.00
62510;BME280;48558;48.242;11.654;2023-11-21T04:25:37;95684.03;;;6.37;100.00
62510;BME280;48558;48.242;11.654;2023-11-21T04:29:50;95645.00;;;6.12;100.00
62510;BME280;48558;48.242;11.654;2023-11-21T04:34:02;95693.09;;;6.25;100.00
62510;BME280;48558;48.242;11.654;2023-11-21T04:38:16;95696.31;;;6.64;100.00
62510;BME280;48558;48.242;11.654;2023-11-21T04:42:29;95694.31;;;6.55;100.00
62510;BME280;48558;48.242;11.654;2023-11-21T04:46:41;95684.03;;;6.37;100.00
62510;BME280;48558;48.242;11.654;2023-11-21T04:50:54;95702.47;;;6.37;100.00
62510;BME280;48558;48.242;11.654;2023-11-21T04:55:07;95695.25;;;6.30;100.00
62510;BME280;48558;48.242;11.654;2023-11-21T04:59:22;95705.50;;;6.39;100.00
62510;BME280;48558;48.242;11.654;2023-11-21T05:03:39;95705.50;;;6.39;100.00
62510;BME280;48558;48.242;11.654;2023-11-21T05:07:52;95700.97;;;6.45;100.00
62510;BME280;48558;48.242;11.654;2023-11-21T05:12:06;95702.91;;;6.66;100.00
62510;BME280;48558;48.242;11.654;2023-11-21T05:16:19;95702.63;;;6.73;100.00
62510;BME280;48558;48.242;11.654;2023-11-21T05:20:32;95708.91;;;6.83;100.00
62510;BME280;48558;48.242;11.654;2023-11-21T05:24:45;95701.44;;;6.92;100.00
62510;BME280;48558;48.242;11.654;2023-11-21T05:29:01;95714.88;;;6.90;100.00
62510;BME280;48558;48.242;11.654;2023-11-21T05:33:13;95699.31;;;6.87;100.00
62510;BME280;48558;48.242;11.654;2023-11-21T05:37:26;95706.63;;;6.90;100.00
62510;BME280;48558;48.242;11.654;2023-11-21T05:41:39;95700.72;;;6.92;100.00
62510;BME280;48558;48.242;11.654;2023-11-21T05:45:51;95706.03;;;6.95;100.00
62510;BME280;48558;48.242;11.654;2023-11-21T05:50:04;95712.78;;;7.03;100.00
62510;BME280;48558;48.242;11.654;2023-11-21T05:54:17;95715.09;;;7.05;100.00
62510;BME280;48558;48.242;11.654;2023-11-21T05:58:30;95705.28;;;6.95;100.00
62510;BME280;48558;48.242;11.654;2023-11-21T06:02:44;95688.63;;;6.80;100.00
62510;BME280;48558;48.242;11.654;2023-11-21T06:06:57;95712.34;;;6.65;100.00
62510;BME280;48558;48.242;11.654;2023-11-21T06:11:10;95717.78;;;6.56;100.00
62510;BME280;48558;48.242;11.654;2023-11-21T06:15:23;95722.03;;;6.48;100.00
62510;BME280;48558;48.242;11.654;2023-11-21T06:19:36;95732.13;;;6.51;100.00
62510;BME280;48558;48.242;11.654;2023-11-21T06:23:49;95728.44;;;6.54;100.00
62510;BME280;48558;48.242;11.654;2023-11-21T06:28:04;95735.66;;;6.61;100.00
62510;BME280;48558;48.242;11.654;2023-11-21T06:32:17;95737.66;;;6.60;100.00
62510;BME280;48558;48.242;11.654;2023-11-21T06:36:30;95744.06;;;6.66;100.00
62510;BME280;48558;48.242;11.654;2023-11-21T06:40:42;95746.84;;;6.75;100.00
62510;BME280;48558;48.242;11.654;2023-11-21T06:44:57;95750.25;;;6.88;100.00
62510;BME280;48558;48.242;11.654;2023-11-21T06:49:09;95751.63;;;6.84;100.00
62510;BME280;48558;48.242;11.654;2023-11-21T06:53:22;95758.97;;;6.87;100.00
62510;BME280;48558;48.242;11.654;2023-11-21T06:57:34;95768.00;;;6.96;100.00
62510;BME280;48558;48.242;11.654;2023-11-21T07:01:47;95764.34;;;6.99;100.00
62510;BME280;48558;48.242;11.654;2023-11-21T07:06:00;95765.41;;;7.02;100.00
62510;BME280;48558;48.242;11.654;2023-11-21T07:10:12;95770.44;;;7.03;100.00
62510;BME280;48558;48.242;11.654;2023-11-21T07:14:25;95774.31;;;7.15;100.00
62510;BME280;48558;48.242;11.654;2023-11-21T07:18:38;95774.50;;;7.20;100.00
62510;BME280;48558;48.242;11.654;2023-11-21T07:22:50;95777.25;;;7.20;100.00
62510;BME280;48558;48.242;11.654;2023-11-21T07:27:03;95783.13;;;7.50;100.00
62510;BME280;48558;48.242;11.654;2023-11-21T07:31:16;95782.56;;;7.64;100.00
62510;BME280;48558;48.242;11.654;2023-11-21T07:35:29;95767.84;;;7.58;100.00
62510;BME280;48558;48.242;11.654;2023-11-21T07:39:42;95774.91;;;7.59;100.00
62510;BME280;48558;48.242;11.654;2023-11-21T07:43:55;95793.97;;;7.62;100.00
62510;BME280;48558;48.242;11.654;2023-11-21T07:48:08;95769.72;;;7.70;100.00
62510;BME280;48558;48.242;11.654;2023-11-21T07:52:20;95799.38;;;7.93;100.00
62510;BME280;48558;48.242;11.654;2023-11-21T07:56:33;95801.53;;;8.16;100.00
62510;BME280;48558;48.242;11.654;2023-11-21T08:00:46;95789.91;;;8.12;100.00
62510;BME280;48558;48.242;11.654;2023-11-21T08:04:59;95773.59;;;8.27;100.00
62510;BME280;48558;48.242;11.654;2023-11-21T08:09:12;95773.09;;;8.37;100.00
62510;BME280;48558;48.242;11.654;2023-11-21T08:13:28;95787.13;;;8.57;99.61
62510;BME280;48558;48.242;11.654;2023-11-21T08:17:42;95793.88;;;8.65;100.00
62510;BME280;48558;48.242;11.654;2023-11-21T08:21:56;95791.25;;;8.62;98.79
62510;BME280;48558;48.242;11.654;2023-11-21T08:26:08;95797.78;;;8.83;98.60
62510;BME280;48558;48.242;11.654;2023-11-21T08:30:21;95787.13;;;8.66;99.79
62510;BME280;48558;48.242;11.654;2023-11-21T08:34:36;95786.53;;;8.62;100.00
62510;BME280;48558;48.242;11.654;2023-11-21T08:38:48;95787.47;;;8.14;100.00
62510;BME280;48558;48.242;11.654;2023-11-21T08:43:01;95791.44;;;8.13;100.00
62510;BME280;48558;48.242;11.654;2023-11-21T08:47:16;95793.16;;;8.38;100.00
62510;BME280;48558;48.242;11.654;2023-11-21T08:51:29;95795.28;;;8.34;100.00
62510;BME280;48558;48.242;11.654;2023-11-21T08:55:42;95793.59;;;8.54;99.81
62510;BME280;48558;48.242;11.654;2023-11-21T08:59:56;95807.63;;;8.75;99.06
62510;BME280;48558;48.242;11.654;2023-11-21T09:04:08;95774.31;;;8.45;98.10
62510;BME280;48558;48.242;11.654;2023-11-21T09:08:21;95812.56;;;8.61;98.82
62510;BME280;48558;48.242;11.654;2023-11-21T09:12:35;95804.94;;;8.29;99.66
62510;BME280;48558;48.242;11.654;2023-11-21T09:16:51;95809.47;;;8.23;100.00
62510;BME280;48558;48.242;11.654;2023-11-21T09:21:04;95810.41;;;7.93;100.00
62510;BME280;48558;48.242;11.654;2023-11-21T09:25:17;95818.97;;;8.04;100.00
62510;BME280;48558;48.242;11.654;2023-11-21T09:29:30;95807.03;;;7.98;100.00
62510;BME280;48558;48.242;11.654;2023-11-21T09:33:44;95826.75;;;8.69;100.00
62510;BME280;48558;48.242;11.654;2023-11-21T09:37:56;95826.78;;;9.20;99.47
62510;BME280;48558;48.242;11.654;2023-11-21T09:42:12;95830.34;;;9.77;95.49
62510;BME280;48558;48.242;11.654;2023-11-21T09:46:34;95835.03;;;9.85;92.14
62510;BME280;48558;48.242;11.654;2023-11-21T09:50:49;95829.75;;;9.73;91.15
62510;BME280;48558;48.242;11.654;2023-11-21T09:55:05;95827.94;;;9.70;93.02
62510;BME280;48558;48.242;11.654;2023-11-21T09:59:18;95820.84;;;10.25;88.82
62510;BME280;48558;48.242;11.654;2023-11-21T10:03:31;95817.63;;;10.27;89.07
62510;BME280;48558;48.242;11.654;2023-11-21T10:07:44;95827.69;;;10.30;89.94
62510;BME280;48558;48.242;11.654;2023-11-21T10:11:58;95823.16;;;10.27;90.04
62510;BME280;48558;48.242;11.654;2023-11-21T10:16:15;95826.72;;;10.18;90.31
62510;BME280;48558;48.242;11.654;2023-11-21T10:20:33;95820.06;;;10.01;89.75
62510;BME280;48558;48.242;11.654;2023-11-21T10:24:46;95820.66;;;9.81;90.20
62510;BME280;48558;48.242;11.654;2023-11-21T10:29:04;95834.50;;;9.96;89.38
62510;BME280;48558;48.242;11.654;2023-11-21T10:33:17;95830.56;;;9.64;90.30
62510;BME280;48558;48.242;11.654;2023-11-21T10:37:30;95830.44;;;9.59;93.17
62510;BME280;48558;48.242;11.654;2023-11-21T10:41:46;95838.53;;;9.95;93.20
62510;BME280;48558;48.242;11.654;2023-11-21T10:45:59;95836.25;;;10.17;88.70
62510;BME280;48558;48.242;11.654;2023-11-21T10:50:12;95796.63;;;10.20;85.69
62510;BME280;48558;48.242;11.654;2023-11-21T10:54:26;95836.28;;;11.28;83.25
62510;BME280;48558;48.242;11.654;2023-11-21T10:58:38;95822.25;;;11.17;81.11
62510;BME280;48558;48.242;11.654;2023-11-21T11:02:53;95823.03;;;11.32;83.12
62510;BME280;48558;48.242;11.654;2023-11-21T11:07:12;95827.00;;;11.31;80.26
62510;BME280;48558;48.242;11.654;2023-11-21T11:11:25;95819.28;;;11.35;81.22
62510;BME280;48558;48.242;11.654;2023-11-21T11:15:38;95815.19;;;11.31;80.36
62510;BME280;48558;48.242;11.654;2023-11-21T11:19:51;95825.13;;;10.79;81.61
62510;BME280;48558;48.242;11.654;2023-11-21T11:29:26;95803.78;;;10.65;82.82
62510;BME280;48558;48.242;11.654;2023-11-21T11:34:13;95818.44;;;10.86;84.14
62510;BME280;48558;48.242;11.654;2023-11-21T11:38:33;95817.22;;;11.01;82.15
62510;BME280;48558;48.242;11.654;2023-11-21T11:42:56;95823.91;;;11.24;84.92
62510;BME280;48558;48.242;11.654;2023-11-21T11:47:26;95820.25;;;11.18;80.47
62510;BME280;48558;48.242;11.654;2023-11-21T11:51:46;95803.03;;;10.94;81.67
62510;BME280;48558;48.242;11.654;2023-11-21T11:56:21;95809.41;;;11.00;83.47
62510;BME280;48558;48.242;11.654;2023-11-21T12:00:42;95798.78;;;11.27;80.55
62510;BME280;48558;48.242;11.654;2023-11-21T12:04:55;95813.41;;;11.28;78.67
62510;BME280;48558;48.242;11.654;2023-11-21T12:09:18;95805.50;;;10.77;82.52
62510;BME280;48558;48.242;11.654;2023-11-21T12:13:31;95817.31;;;11.21;79.32
62510;BME280;48558;48.242;11.654;2023-11-21T12:17:44;95808.63;;;11.14;80.51
62510;BME280;48558;48.242;11.654;2023-11-21T12:21:57;95811.00;;;11.21;80.63
62510;BME280;48558;48.242;11.654;2023-11-21T12:26:11;95816.53;;;11.06;80.88
62510;BME280;48558;48.242;11.654;2023-11-21T12:30:30;95806.03;;;11.39;80.88
62510;BME280;48558;48.242;11.654;2023-11-21T12:34:43;95812.06;;;11.73;78.54
62510;BME280;48558;48.242;11.654;2023-11-21T12:38:56;95806.91;;;11.80;74.42
62510;BME280;48558;48.242;11.654;2023-11-21T12:43:09;95805.88;;;11.28;75.81
62510;BME280;48558;48.242;11.654;2023-11-21T12:47:22;95807.47;;;10.76;78.69
62510;BME280;48558;48.242;11.654;2023-11-21T12:51:34;95814.25;;;10.61;84.27
62510;BME280;48558;48.242;11.654;2023-11-21T12:55:47;95807.56;;;10.67;85.95
62510;BME280;48558;48.242;11.654;2023-11-21T13:00:04;95816.09;;;10.40;90.43
62510;BME280;48558;48.242;11.654;2023-11-21T13:04:34;95791.13;;;10.20;96.02
62510;BME280;48558;48.242;11.654;2023-11-21T13:08:47;95829.97;;;10.55;95.87
62510;BME280;48558;48.242;11.654;2023-11-21T13:13:01;95816.38;;;10.28;92.58
62510;BME280;48558;48.242;11.654;2023-11-21T13:17:17;95817.59;;;11.09;88.54
62510;BME280;48558;48.242;11.654;2023-11-21T13:21:31;95829.91;;;10.78;91.06
62510;BME280;48558;48.242;11.654;2023-11-21T13:25:43;95832.06;;;10.60;92.46
62510;BME280;48558;48.242;11.654;2023-11-21T13:30:13;95842.34;;;10.21;100.00
62510;BME280;48558;48.242;11.654;2023-11-21T13:34:35;95857.13;;;9.53;100.00
62510;BME280;48558;48.242;11.654;2023-11-21T13:38:50;95852.91;;;8.83;100.00
62510;BME280;48558;48.242;11.654;2023-11-21T13:43:04;95861.94;;;8.20;100.00
62510;BME280;48558;48.242;11.654;2023-11-21T13:47:17;95867.25;;;8.05;100.00
62510;BME280;48558;48.242;11.654;2023-11-21T13:51:30;95866.03;;;8.15;100.00
62510;BME280;48558;48.242;11.654;2023-11-21T13:55:57;95863.16;;;8.55;100.00
62510;BME280;48558;48.242;11.654;2023-11-21T14:00:11;95877.41;;;8.72;100.00
62510;BME280;48558;48.242;11.654;2023-11-21T14:04:44;95886.41;;;8.90;100.00
62510;BME280;48558;48.242;11.654;2023-11-21T14:09:13;95885.28;;;9.15;100.00
62510;BME280;48558;48.242;11.654;2023-11-21T14:13:34;95886.25;;;8.94;100.00
62510;BME280;48558;48.242;11.654;2023-11-21T14:17:47;95896.22;;;8.64;100.00
62510;BME280;48558;48.242;11.654;2023-11-21T14:21:59;95882.00;;;8.65;100.00
62510;BME280;48558;48.242;11.654;2023-11-21T14:26:12;95886.28;;;8.57;100.00
62510;BME280;48558;48.242;11.654;2023-11-21T14:30:27;95899.44;;;8.72;100.00
62510;BME280;48558;48.242;11.654;2023-11-21T14:34:41;95907.22;;;8.64;100.00
62510;BME280;48558;48.242;11.654;2023-11-21T14:38:55;95905.25;;;8.64;100.00
62510;BME280;48558;48.242;11.654;2023-11-21T14:43:07;95895.16;;;8.80;100.00
62510;BME280;48558;48.242;11.654;2023-11-21T14:47:20;95898.91;;;9.09;100.00
62510;BME280;48558;48.242;11.654;2023-11-21T14:51:37;95903.41;;;8.98;100.00
62510;BME280;48558;48.242;11.654;2023-11-21T14:56:10;95915.47;;;9.00;100.00
62510;BME280;48558;48.242;11.654;2023-11-21T15:00:23;95922.78;;;9.21;100.00
62510;BME280;48558;48.242;11.654;2023-11-21T15:04:49;95918.41;;;8.97;100.00
62510;BME280;48558;48.242;11.654;2023-11-21T15:09:05;95922.84;;;8.85;100.00
62510;BME280;48558;48.242;11.654;2023-11-21T15:13:21;95929.72;;;8.81;100.00
62510;BME280;48558;48.242;11.654;2023-11-21T15:17:39;95936.31;;;8.56;100.00
62510;BME280;48558;48.242;11.654;2023-11-21T15:21:55;95951.75;;;8.53;100.00
62510;BME280;48558;48.242;11.654;2023-11-21T15:26:08;95955.41;;;8.41;100.00
62510;BME280;48558;48.242;11.654;2023-11-21T15:30:22;95945.16;;;7.84;100.00
62510;BME280;48558;48.242;11.654;2023-11-21T15:34:37;95924.72;;;8.03;100.00
62510;BME280;48558;48.242;11.654;2023-11-21T15:38:51;95948.50;;;7.79;100.00
62510;BME280;48558;48.242;11.654;2023-11-21T15:43:05;95953.69;;;7.77;100.00
62510;BME280;48558;48.242;11.654;2023-11-21T15:47:19;95958.22;;;7.62;100.00
62510;BME280;48558;48.242;11.654;2023-11-21T15:51:31;95954.69;;;7.61;100.00
62510;BME280;48558;48.242;11.654;2023-11-21T15:55:44;95945.41;;;7.37;100.00
62510;BME280;48558;48.242;11.654;2023-11-21T15:59:56;95965.09;;;7.36;100.00
62510;BME280;48558;48.242;11.654;2023-11-21T16:04:10;95975.56;;;7.50;100.00
62510;BME280;48558;48.242;11.654;2023-11-21T16:08:24;95975.81;;;7.43;100.00
62510;BME280;48558;48.242;11.654;2023-11-21T16:12:38;95985.09;;;7.36;100.00
62510;BME280;48558;48.242;11.654;2023-11-21T16:16:54;95985.63;;;7.44;100.00
62510;BME280;48558;48.242;11.654;2023-11-21T16:21:06;95995.44;;;7.54;100.00
62510;BME280;48558;48.242;11.654;2023-11-21T16:25:22;96002.28;;;7.49;100.00
62510;BME280;48558;48.242;11.654;2023-11-21T16:29:35;95999.16;;;7.38;100.00
62510;BME280;48558;48.242;11.654;2023-11-21T16:33:48;96010.34;;;7.44;100.00
62510;BME280;48558;48.242;11.654;2023-11-21T16:38:00;96014.63;;;7.45;100.00
62510;BME280;48558;48.242;11.654;2023-11-21T16:42:13;96030.34;;;7.44;100.00
62510;BME280;48558;48.242;11.654;2023-11-21T16:46:27;96034.28;;;7.65;100.00
62510;BME280;48558;48.242;11.654;2023-11-21T16:50:43;96030.91;;;7.61;100.00
62510;BME280;48558;48.242;11.654;2023-11-21T16:54:56;96040.69;;;7.62;100.00
62510;BME280;48558;48.242;11.654;2023-11-21T16:59:09;96043.19;;;7.69;100.00
62510;BME280;48558;48.242;11.654;2023-11-21T17:03:22;96041.53;;;7.50;100.00
62510;BME280;48558;48.242;11.654;2023-11-21T17:07:35;96044.84;;;7.66;100.00
62510;BME280;48558;48.242;11.654;2023-11-21T17:11:49;96049.56;;;7.66;100.00
62510;BME280;48558;48.242;11.654;2023-11-21T17:16:03;96062.88;;;7.67;100.00
62510;BME280;48558;48.242;11.654;2023-11-21T17:20:15;96070.19;;;7.61;100.00
62510;BME280;48558;48.242;11.654;2023-11-21T17:24:29;96064.09;;;7.66;100.00
62510;BME280;48558;48.242;11.654;2023-11-21T17:28:42;96066.97;;;7.63;100.00
62510;BME280;48558;48.242;11.654;2023-11-21T17:32:55;96075.53;;;7.65;100.00
62510;BME280;48558;48.242;11.654;2023-11-21T17:37:08;96072.22;;;7.48;100.00
62510;BME280;48558;48.242;11.654;2023-11-21T17:41:21;96078.22;;;7.56;100.00
62510;BME280;48558;48.242;11.654;2023-11-21T17:45:34;96054.69;;;7.33;100.00
62510;BME280;48558;48.242;11.654;2023-11-21T17:49:47;96077.97;;;7.41;100.00
62510;BME280;48558;48.242;11.654;2023-11-21T17:54:01;96081.53;;;7.29;100.00
62510;BME280;48558;48.242;11.654;2023-11-21T17:58:14;96083.72;;;7.34;100.00
62510;BME280;48558;48.242;11.654;2023-11-21T18:02:26;96098.44;;;7.40;100.00
62510;BME280;48558;48.242;11.654;2023-11-21T18:06:40;96100.31;;;7.31;100.00
62510;BME280;48558;48.242;11.654;2023-11-21T18:10:54;96101.66;;;7.26;100.00
62510;BME280;48558;48.242;11.654;2023-11-21T18:15:10;96096.38;;;7.32;100.00
62510;BME280;48558;48.242;11.654;2023-11-21T18:19:26;96092.19;;;7.05;100.00
62510;BME280;48558;48.242;11.654;2023-11-21T18:23:38;96107.34;;;7.10;100.00
62510;BME280;48558;48.242;11.654;2023-11-21T18:27:51;96107.38;;;6.97;100.00
62510;BME280;48558;48.242;11.654;2023-11-21T18:32:04;96109.41;;;7.18;100.00
62510;BME280;48558;48.242;11.654;2023-11-21T18:36:21;96125.25;;;7.14;100.00
62510;BME280;48558;48.242;11.654;2023-11-21T18:40:34;96120.66;;;7.33;100.00
62510;BME280;48558;48.242;11.654;2023-11-21T18:44:56;96125.34;;;7.23;100.00
62510;BME280;48558;48.242;11.654;2023-11-21T18:49:20;96130.91;;;7.33;100.00
62510;BME280;48558;48.242;11.654;2023-11-21T18:53:34;96143.88;;;7.32;100.00
62510;BME280;48558;48.242;11.654;2023-11-21T18:57:57;96138.47;;;7.29;100.00
62510;BME280;48558;48.242;11.654;2023-11-21T19:02:19;96145.97;;;7.28;100.00
62510;BME280;48558;48.242;11.654;2023-11-21T19:06:43;96147.88;;;7.18;100.00
62510;BME280;48558;48.242;11.654;2023-11-21T19:10:59;96143.25;;;7.15;100.00
62510;BME280;48558;48.242;11.654;2023-11-21T19:15:22;96155.03;;;7.16;100.00
62510;BME280;48558;48.242;11.654;2023-11-21T19:19:44;96155.13;;;7.12;100.00
62510;BME280;48558;48.242;11.654;2023-11-21T19:24:02;96154.94;;;7.07;100.00
62510;BME280;48558;48.242;11.654;2023-11-21T19:28:25;96146.16;;;6.99;100.00
62510;BME280;48558;48.242;11.654;2023-11-21T19:32:39;96163.09;;;6.98;100.00
62510;BME280;48558;48.242;11.654;2023-11-21T19:37:01;96164.28;;;6.97;100.00
62510;BME280;48558;48.242;11.654;2023-11-21T19:41:25;96164.09;;;6.79;100.00
62510;BME280;48558;48.242;11.654;2023-11-21T19:45:49;96182.75;;;6.84;100.00
62510;BME280;48558;48.242;11.654;2023-11-21T19:50:05;96184.00;;;6.83;100.00
62510;BME280;48558;48.242;11.654;2023-11-21T19:54:31;96196.94;;;6.82;100.00
62510;BME280;48558;48.242;11.654;2023-11-21T19:58:53;96202.44;;;6.82;100.00
62510;BME280;48558;48.242;11.654;2023-11-21T20:03:06;96202.09;;;6.80;100.00
62510;BME280;48558;48.242;11.654;2023-11-21T20:07:19;96212.63;;;6.94;100.00
62510;BME280;48558;48.242;11.654;2023-11-21T20:11:34;96215.38;;;6.94;100.00
62510;BME280;48558;48.242;11.654;2023-11-21T20:15:47;96214.50;;;6.97;100.00
62510;BME280;48558;48.242;11.654;2023-11-21T20:19:59;96224.19;;;6.89;100.00
62510;BME280;48558;48.242;11.654;2023-11-21T20:24:12;96231.75;;;6.98;100.00
62510;BME280;48558;48.242;11.654;2023-11-21T20:28:25;96238.69;;;7.02;100.00
62510;BME280;48558;48.242;11.654;2023-11-21T20:32:39;96242.28;;;6.99;100.00
62510;BME280;48558;48.242;11.654;2023-11-21T20:36:52;96243.53;;;6.98;100.00
62510;BME280;48558;48.242;11.654;2023-11-21T20:41:05;96245.94;;;6.96;100.00
62510;BME280;48558;48.242;11.654;2023-11-21T20:45:19;96250.44;;;7.03;100.00
62510;BME280;48558;48.242;11.654;2023-11-21T20:49:36;96256.94;;;6.96;100.00
62510;BME280;48558;48.242;11.654;2023-11-21T20:53:58;96255.59;;;6.88;100.00
62510;BME280;48558;48.242;11.654;2023-11-21T20:58:11;96264.50;;;6.92;100.00
62510;BME280;48558;48.242;11.654;2023-11-21T21:02:24;96269.66;;;6.90;100.00
62510;BME280;48558;48.242;11.654;2023-11-21T21:06:37;96271.00;;;6.98;100.00
62510;BME280;48558;48.242;11.654;2023-11-21T21:10:50;96275.59;;;7.01;100.00
62510;BME280;48558;48.242;11.654;2023-11-21T21:15:07;96264.16;;;6.90;100.00
62510;BME280;48558;48.242;11.654;2023-11-21T21:19:23;96281.75;;;6.93;100.00
62510;BME280;48558;48.242;11.654;2023-11-21T21:23:39;96286.03;;;7.06;100.00
62510;BME280;48558;48.242;11.654;2023-11-21T21:27:51;96292.19;;;6.98;100.00
62510;BME280;48558;48.242;11.654;2023-11-21T21:32:05;96285.16;;;6.97;100.00
62510;BME280;48558;48.242;11.654;2023-11-21T21:36:19;96282.84;;;6.95;100.00
62510;BME280;48558;48.242;11.654;2023-11-21T21:40:35;96303.72;;;6.93;100.00
62510;BME280;48558;48.242;11.654;2023-11-21T21:44:47;96294.19;;;7.10;100.00
62510;BME280;48558;48.242;11.654;2023-11-21T21:49:00;96307.47;;;7.11;100.00
62510;BME280;48558;48.242;11.654;2023-11-21T21:53:15;96302.06;;;7.08;100.00
62510;BME280;48558;48.242;11.654;2023-11-21T21:57:28;96300.75;;;7.00;100.00
62510;BME280;48558;48.242;11.654;2023-11-21T22:01:44;96300.75;;;7.00;100.00
62510;BME280;48558;48.242;11.654;2023-11-21T22:05:57;96306.38;;;6.96;100.00
62510;BME280;48558;48.242;11.654;2023-11-21T22:10:10;96300.75;;;7.00;100.00
62510;BME280;48558;48.242;11.654;2023-11-21T22:14:23;96290.44;;;6.91;100.00
62510;BME280;48558;48.242;11.654;2023-11-21T22:18:35;96310.19;;;6.99;100.00